sensor_id;sensor_type;location;lat;lon;timestamp;pressure;altitude;pressure_sealevel;temperature;humidity
43878;BME280;29815;48.184;11.268;2023-07-28T00:00:16;95018.13;;;13.68;100.00
43878;BME280;29815;48.184;11.268;2023-07-28T00:02:45;95020.53;;;13.70;100.00
43878;BME280;29815;48.184;11.268;2023-07-28T00:05:15;95014.03;;;13.71;100.00
43878;BME280;29815;48.184;11.268;2023-07-28T00:07:45;95015.63;;;13.72;100.00
43878;BME280;29815;48.184;11.268;2023-07-28T00:10:14;95009.41;;;13.71;100.00
43878;BME280;29815;48.184;11.268;2023-07-28T00:12:44;95004.00;;;13.71;100.00
43878;BME280;29815;48.184;11.268;2023-07-28T00:15:13;95006.13;;;13.74;100.00
43878;BME280;29815;48.184;11.268;2023-07-28T00:17:44;95001.09;;;13.81;100.00
43878;BME280;29815;48.184;11.268;2023-07-28T00:20:14;94998.28;;;13.86;100.00
43878;BME280;29815;48.184;11.268;2023-07-28T00:22:44;94987.88;;;13.94;100.00
43878;BME280;29815;48.184;11.268;2023-07-28T00:25:13;94987.72;;;13.99;100.00
43878;BME280;29815;48.184;11.268;2023-07-28T00:27:43;94988.72;;;14.03;100.00
43878;BME280;29815;48.184;11.268;2023-07-28T00:30:12;94987.03;;;14.07;100.00
43878;BME280;29815;48.184;11.268;2023-07-28T00:32:43;94985.31;;;14.11;100.00
43878;BME280;29815;48.184;11.268;2023-07-28T00:35:13;94983.91;;;14.13;100.00
43878;BME280;29815;48.184;11.268;2023-07-28T00:37:42;94990.00;;;14.19;100.00
43878;BME280;29815;48.184;11.268;2023-07-28T00:40:13;95000.69;;;14.24;100.00
43878;BME280;29815;48.184;11.268;2023-07-28T00:42:42;94995.28;;;14.24;100.00
43878;BME280;29815;48.184;11.268;2023-07-28T00:45:12;95002.59;;;14.23;100.00
43878;BME280;29815;48.184;11.268;2023-07-28T00:47:44;94991.16;;;14.27;100.00
43878;BME280;29815;48.184;11.268;2023-07-28T00:50:14;94993.56;;;14.28;100.00
43878;BME280;29815;48.184;11.268;2023-07-28T00:52:44;95002.47;;;14.29;100.00
43878;BME280;29815;48.184;11.268;2023-07-28T00:55:14;94994.16;;;14.25;100.00
43878;BME280;29815;48.184;11.268;2023-07-28T00:57:44;94994.47;;;14.23;100.00
43878;BME280;29815;48.184;11.268;2023-07-28T01:00:14;94993.19;;;14.21;100.00
43878;BME280;29815;48.184;11.268;2023-07-28T01:02:45;94996.03;;;14.16;100.00
43878;BME280;29815;48.184;11.268;2023-07-28T01:05:15;95001.84;;;14.09;100.00
43878;BME280;29815;48.184;11.268;2023-07-28T01:07:51;95001.47;;;14.02;100.00
43878;BME280;29815;48.184;11.268;2023-07-28T01:10:28;95005.06;;;13.98;100.00
43878;BME280;29815;48.184;11.268;2023-07-28T01:13:00;95006.47;;;13.95;100.00
43878;BME280;29815;48.184;11.268;2023-07-28T01:15:29;95009.00;;;13.92;100.00
43878;BME280;29815;48.184;11.268;2023-07-28T01:18:00;95003.41;;;13.88;100.00
43878;BME280;29815;48.184;11.268;2023-07-28T01:20:34;94999.91;;;13.87;100.00
43878;BME280;29815;48.184;11.268;2023-07-28T01:23:09;94996.38;;;13.87;100.00
43878;BME280;29815;48.184;11.268;2023-07-28T01:25:55;94994.00;;;13.85;100.00
43878;BME280;29815;48.184;11.268;2023-07-28T01:28:35;94998.41;;;13.81;100.00
43878;BME280;29815;48.184;11.268;2023-07-28T01:31:07;94993.09;;;13.76;100.00
43878;BME280;29815;48.184;11.268;2023-07-28T01:33:37;94993.69;;;13.73;100.00
43878;BME280;29815;48.184;11.268;2023-07-28T01:36:06;94993.81;;;13.68;100.00
43878;BME280;29815;48.184;11.268;2023-07-28T01:38:36;94986.91;;;13.62;100.00
43878;BME280;29815;48.184;11.268;2023-07-28T01:41:05;94990.31;;;13.54;100.00
43878;BME280;29815;48.184;11.268;2023-07-28T01:43:36;94992.03;;;13.50;100.00
43878;BME280;29815;48.184;11.268;2023-07-28T01:46:06;94989.72;;;13.43;100.00
43878;BME280;29815;48.184;11.268;2023-07-28T01:48:35;94984.44;;;13.38;100.00
43878;BME280;29815;48.184;11.268;2023-07-28T01:51:05;94980.44;;;13.36;100.00
43878;BME280;29815;48.184;11.268;2023-07-28T01:53:35;94989.13;;;13.33;100.00
43878;BME280;29815;48.184;11.268;2023-07-28T01:56:04;94978.94;;;13.30;100.00
43878;BME280;29815;48.184;11.268;2023-07-28T01:58:34;94983.22;;;13.31;100.00
43878;BME280;29815;48.184;11.268;2023-07-28T02:01:04;94990.75;;;13.34;100.00
43878;BME280;29815;48.184;11.268;2023-07-28T02:03:34;94986.63;;;13.36;100.00
43878;BME280;29815;48.184;11.268;2023-07-28T02:06:04;94983.91;;;13.50;100.00
43878;BME280;29815;48.184;11.268;2023-07-28T02:08:33;94984.41;;;13.52;100.00
43878;BME280;29815;48.184;11.268;2023-07-28T02:11:03;94987.41;;;13.50;100.00
43878;BME280;29815;48.184;11.268;2023-07-28T02:13:35;94992.03;;;13.50;100.00
43878;BME280;29815;48.184;11.268;2023-07-28T02:16:05;94987.41;;;13.50;100.00
43878;BME280;29815;48.184;11.268;2023-07-28T02:18:34;94989.81;;;13.52;100.00
43878;BME280;29815;48.184;11.268;2023-07-28T02:21:04;94986.31;;;13.51;100.00
43878;BME280;29815;48.184;11.268;2023-07-28T02:23:33;94990.13;;;13.50;100.00
43878;BME280;29815;48.184;11.268;2023-07-28T02:26:03;94989.31;;;13.50;100.00
43878;BME280;29815;48.184;11.268;2023-07-28T02:28:32;94982.91;;;13.46;100.00
43878;BME280;29815;48.184;11.268;2023-07-28T02:31:03;94988.31;;;13.46;100.00
43878;BME280;29815;48.184;11.268;2023-07-28T02:33:33;94980.63;;;13.39;100.00
43878;BME280;29815;48.184;11.268;2023-07-28T02:36:05;94981.25;;;13.36;100.00
43878;BME280;29815;48.184;11.268;2023-07-28T02:38:35;94978.63;;;13.31;100.00
43878;BME280;29815;48.184;11.268;2023-07-28T02:41:04;94987.63;;;13.27;100.00
43878;BME280;29815;48.184;11.268;2023-07-28T02:43:34;94995.53;;;13.23;100.00
43878;BME280;29815;48.184;11.268;2023-07-28T02:46:05;94984.53;;;13.19;100.00
43878;BME280;29815;48.184;11.268;2023-07-28T02:48:36;94988.91;;;13.15;100.00
43878;BME280;29815;48.184;11.268;2023-07-28T02:51:05;94986.00;;;13.12;100.00
43878;BME280;29815;48.184;11.268;2023-07-28T02:53:35;94983.91;;;13.09;100.00
43878;BME280;29815;48.184;11.268;2023-07-28T02:56:04;94986.09;;;13.07;100.00
43878;BME280;29815;48.184;11.268;2023-07-28T02:58:34;94986.69;;;13.04;100.00
43878;BME280;29815;48.184;11.268;2023-07-28T03:01:05;94985.09;;;13.03;100.00
43878;BME280;29815;48.184;11.268;2023-07-28T03:03:37;94982.97;;;13.00;100.00
43878;BME280;29815;48.184;11.268;2023-07-28T03:06:07;94981.69;;;12.97;100.00
43878;BME280;29815;48.184;11.268;2023-07-28T03:08:38;94991.16;;;12.95;100.00
43878;BME280;29815;48.184;11.268;2023-07-28T03:11:22;94983.97;;;12.90;100.00
43878;BME280;29815;48.184;11.268;2023-07-28T03:13:52;94981.84;;;12.87;100.00
43878;BME280;29815;48.184;11.268;2023-07-28T03:16:23;94987.06;;;12.83;100.00
43878;BME280;29815;48.184;11.268;2023-07-28T03:18:52;94987.66;;;12.80;100.00
43878;BME280;29815;48.184;11.268;2023-07-28T03:21:22;94991.16;;;12.81;100.00
43878;BME280;29815;48.184;11.268;2023-07-28T03:23:51;94990.56;;;12.84;100.00
43878;BME280;29815;48.184;11.268;2023-07-28T03:26:21;94990.16;;;12.91;100.00
43878;BME280;29815;48.184;11.268;2023-07-28T03:28:50;94986.56;;;12.95;100.00
43878;BME280;29815;48.184;11.268;2023-07-28T03:31:20;94995.91;;;13.03;100.00
43878;BME280;29815;48.184;11.268;2023-07-28T03:33:51;95001.22;;;13.08;100.00
43878;BME280;29815;48.184;11.268;2023-07-28T03:36:21;94996.00;;;13.11;100.00
43878;BME280;29815;48.184;11.268;2023-07-28T03:38:51;95005.13;;;13.15;100.00
43878;BME280;29815;48.184;11.268;2023-07-28T03:41:20;94999.13;;;13.18;100.00
43878;BME280;29815;48.184;11.268;2023-07-28T03:43:50;94989.31;;;13.23;100.00
43878;BME280;29815;48.184;11.268;2023-07-28T03:46:20;94993.34;;;13.25;100.00
43878;BME280;29815;48.184;11.268;2023-07-28T03:48:51;94990.13;;;13.23;100.00
43878;BME280;29815;48.184;11.268;2023-07-28T03:51:20;95003.94;;;13.21;100.00
43878;BME280;29815;48.184;11.268;2023-07-28T03:53:50;94992.13;;;13.17;100.00
43878;BME280;29815;48.184;11.268;2023-07-28T03:56:19;94989.41;;;13.17;100.00
43878;BME280;29815;48.184;11.268;2023-07-28T03:58:49;95002.94;;;13.17;100.00
43878;BME280;29815;48.184;11.268;2023-07-28T04:01:18;94996.44;;;13.18;100.00
43878;BME280;29815;48.184;11.268;2023-07-28T04:03:51;94984.72;;;13.23;100.00
43878;BME280;29815;48.184;11.268;2023-07-28T04:06:39;94997.66;;;13.40;100.00
43878;BME280;29815;48.184;11.268;2023-07-28T04:09:12;95006.66;;;13.63;100.00
43878;BME280;29815;48.184;11.268;2023-07-28T04:11:43;94999.72;;;13.70;100.00
43878;BME280;29815;48.184;11.268;2023-07-28T04:14:13;94996.00;;;13.80;100.00
43878;BME280;29815;48.184;11.268;2023-07-28T04:16:43;94995.97;;;13.94;100.00
43878;BME280;29815;48.184;11.268;2023-07-28T04:19:15;94994.63;;;14.05;100.00
43878;BME280;29815;48.184;11.268;2023-07-28T04:21:44;95001.94;;;14.18;100.00
43878;BME280;29815;48.184;11.268;2023-07-28T04:24:14;95000.38;;;14.26;100.00
43878;BME280;29815;48.184;11.268;2023-07-28T04:26:47;94995.03;;;14.34;100.00
43878;BME280;29815;48.184;11.268;2023-07-28T04:29:19;95000.25;;;14.44;100.00
43878;BME280;29815;48.184;11.268;2023-07-28T04:31:49;94997.28;;;14.54;100.00
43878;BME280;29815;48.184;11.268;2023-07-28T04:34:28;94999.38;;;14.57;100.00
43878;BME280;29815;48.184;11.268;2023-07-28T04:37:06;94998.78;;;14.61;100.00
43878;BME280;29815;48.184;11.268;2023-07-28T04:39:46;95010.03;;;14.76;100.00
43878;BME280;29815;48.184;11.268;2023-07-28T04:42:17;95009.69;;;14.78;100.00
43878;BME280;29815;48.184;11.268;2023-07-28T04:44:48;95007.66;;;14.83;100.00
43878;BME280;29815;48.184;11.268;2023-07-28T04:47:19;94998.44;;;14.84;100.00
43878;BME280;29815;48.184;11.268;2023-07-28T04:49:50;95010.75;;;14.90;100.00
43878;BME280;29815;48.184;11.268;2023-07-28T04:52:25;95015.75;;;14.97;100.00
43878;BME280;29815;48.184;11.268;2023-07-28T04:55:08;95017.16;;;14.95;100.00
43878;BME280;29815;48.184;11.268;2023-07-28T04:57:38;95021.97;;;15.06;100.00
43878;BME280;29815;48.184;11.268;2023-07-28T05:00:09;95020.94;;;15.16;100.00
43878;BME280;29815;48.184;11.268;2023-07-28T05:02:40;95016.00;;;15.18;100.00
43878;BME280;29815;48.184;11.268;2023-07-28T05:05:11;95025.28;;;15.26;100.00
43878;BME280;29815;48.184;11.268;2023-07-28T05:07:40;95021.66;;;15.39;100.00
43878;BME280;29815;48.184;11.268;2023-07-28T05:10:14;95030.78;;;15.43;100.00
43878;BME280;29815;48.184;11.268;2023-07-28T05:12:44;95033.72;;;15.55;100.00
43878;BME280;29815;48.184;11.268;2023-07-28T05:15:14;95024.50;;;15.56;100.00
43878;BME280;29815;48.184;11.268;2023-07-28T05:17:44;95027.53;;;15.63;100.00
43878;BME280;29815;48.184;11.268;2023-07-28T05:20:47;95029.78;;;15.70;100.00
43878;BME280;29815;48.184;11.268;2023-07-28T05:23:17;95019.59;;;15.75;100.00
43878;BME280;29815;48.184;11.268;2023-07-28T05:25:46;95021.22;;;15.85;100.00
43878;BME280;29815;48.184;11.268;2023-07-28T05:28:16;95031.59;;;15.91;100.00
43878;BME280;29815;48.184;11.268;2023-07-28T05:30:48;95043.75;;;15.94;100.00
43878;BME280;29815;48.184;11.268;2023-07-28T05:33:17;95035.78;;;15.98;100.00
43878;BME280;29815;48.184;11.268;2023-07-28T05:36:01;95049.06;;;16.08;100.00
43878;BME280;29815;48.184;11.268;2023-07-28T05:38:34;95035.97;;;16.18;100.00
43878;BME280;29815;48.184;11.268;2023-07-28T05:41:04;95038.06;;;16.30;100.00
43878;BME280;29815;48.184;11.268;2023-07-28T05:43:33;95041.91;;;16.29;100.00
43878;BME280;29815;48.184;11.268;2023-07-28T05:46:03;95046.53;;;16.37;100.00
43878;BME280;29815;48.184;11.268;2023-07-28T05:48:35;95053.88;;;16.54;100.00
43878;BME280;29815;48.184;11.268;2023-07-28T05:51:06;95061.75;;;16.64;100.00
43878;BME280;29815;48.184;11.268;2023-07-28T05:53:36;95064.13;;;16.74;100.00
43878;BME280;29815;48.184;11.268;2023-07-28T05:56:07;95063.50;;;16.86;100.00
43878;BME280;29815;48.184;11.268;2023-07-28T05:58:37;95058.88;;;16.86;100.00
43878;BME280;29815;48.184;11.268;2023-07-28T06:01:06;95069.25;;;16.93;100.00
43878;BME280;29815;48.184;11.268;2023-07-28T06:03:59;95071.78;;;17.07;100.00
43878;BME280;29815;48.184;11.268;2023-07-28T06:06:32;95073.38;;;17.16;100.00
43878;BME280;29815;48.184;11.268;2023-07-28T06:09:02;95084.53;;;17.41;100.00
43878;BME280;29815;48.184;11.268;2023-07-28T06:11:32;95082.75;;;17.45;100.00
43878;BME280;29815;48.184;11.268;2023-07-28T06:14:03;95087.66;;;17.60;100.00
43878;BME280;29815;48.184;11.268;2023-07-28T06:16:35;95087.53;;;17.65;100.00
43878;BME280;29815;48.184;11.268;2023-07-28T06:19:05;95082.66;;;17.79;100.00
43878;BME280;29815;48.184;11.268;2023-07-28T06:21:39;95083.59;;;17.83;100.00
43878;BME280;29815;48.184;11.268;2023-07-28T06:24:08;95080.41;;;17.81;100.00
43878;BME280;29815;48.184;11.268;2023-07-28T06:26:38;95083.28;;;17.85;100.00
43878;BME280;29815;48.184;11.268;2023-07-28T06:29:07;95085.47;;;18.00;100.00
43878;BME280;29815;48.184;11.268;2023-07-28T06:31:37;95086.19;;;18.09;100.00
43878;BME280;29815;48.184;11.268;2023-07-28T06:34:06;95101.66;;;18.26;100.00
43878;BME280;29815;48.184;11.268;2023-07-28T06:36:36;95090.59;;;18.31;100.00
43878;BME280;29815;48.184;11.268;2023-07-28T06:39:07;95094.09;;;18.32;100.00
43878;BME280;29815;48.184;11.268;2023-07-28T06:41:36;95087.41;;;18.50;100.00
43878;BME280;29815;48.184;11.268;2023-07-28T06:44:08;95085.63;;;18.54;100.00
43878;BME280;29815;48.184;11.268;2023-07-28T06:46:38;95083.53;;;18.59;100.00
43878;BME280;29815;48.184;11.268;2023-07-28T06:49:08;95084.09;;;18.65;100.00
43878;BME280;29815;48.184;11.268;2023-07-28T06:51:37;95081.13;;;18.79;100.00
43878;BME280;29815;48.184;11.268;2023-07-28T06:54:08;95089.50;;;18.94;100.00
43878;BME280;29815;48.184;11.268;2023-07-28T06:56:41;95087.09;;;19.14;100.00
43878;BME280;29815;48.184;11.268;2023-07-28T06:59:10;95102.41;;;19.39;100.00
43878;BME280;29815;48.184;11.268;2023-07-28T07:01:46;95085.06;;;19.56;100.00
43878;BME280;29815;48.184;11.268;2023-07-28T07:04:16;95082.16;;;19.85;100.00
43878;BME280;29815;48.184;11.268;2023-07-28T07:06:46;95090.94;;;20.03;100.00
43878;BME280;29815;48.184;11.268;2023-07-28T07:09:17;95081.13;;;20.26;100.00
43878;BME280;29815;48.184;11.268;2023-07-28T07:11:47;95089.25;;;20.47;100.00
43878;BME280;29815;48.184;11.268;2023-07-28T07:14:16;95083.53;;;20.65;100.00
43878;BME280;29815;48.184;11.268;2023-07-28T07:16:48;95085.69;;;20.59;100.00
43878;BME280;29815;48.184;11.268;2023-07-28T07:19:17;95089.56;;;20.58;100.00
43878;BME280;29815;48.184;11.268;2023-07-28T07:21:47;95084.66;;;20.64;100.00
43878;BME280;29815;48.184;11.268;2023-07-28T07:24:18;95088.63;;;20.78;100.00
43878;BME280;29815;48.184;11.268;2023-07-28T07:26:49;95080.06;;;20.80;100.00
43878;BME280;29815;48.184;11.268;2023-07-28T07:29:19;95096.13;;;20.81;100.00
43878;BME280;29815;48.184;11.268;2023-07-28T07:31:48;95087.19;;;20.97;100.00
43878;BME280;29815;48.184;11.268;2023-07-28T07:34:23;95086.00;;;21.10;100.00
43878;BME280;29815;48.184;11.268;2023-07-28T07:36:53;95078.59;;;21.10;100.00
43878;BME280;29815;48.184;11.268;2023-07-28T07:39:26;95077.56;;;21.15;100.00
43878;BME280;29815;48.184;11.268;2023-07-28T07:41:56;95082.78;;;21.32;100.00
43878;BME280;29815;48.184;11.268;2023-07-28T07:44:26;95083.59;;;21.48;100.00
43878;BME280;29815;48.184;11.268;2023-07-28T07:46:58;95082.47;;;21.65;100.00
43878;BME280;29815;48.184;11.268;2023-07-28T07:49:29;95082.69;;;21.88;100.00
43878;BME280;29815;48.184;11.268;2023-07-28T07:51:58;95086.03;;;21.97;100.00
43878;BME280;29815;48.184;11.268;2023-07-28T07:54:29;95091.66;;;21.88;100.00
43878;BME280;29815;48.184;11.268;2023-07-28T07:56:58;95089.22;;;21.83;100.00
43878;BME280;29815;48.184;11.268;2023-07-28T07:59:28;95109.19;;;21.84;100.00
43878;BME280;29815;48.184;11.268;2023-07-28T08:02:04;95094.84;;;21.90;100.00
43878;BME280;29815;48.184;11.268;2023-07-28T08:04:34;95101.63;;;22.09;100.00
43878;BME280;29815;48.184;11.268;2023-07-28T08:07:05;95097.81;;;22.13;100.00
43878;BME280;29815;48.184;11.268;2023-07-28T08:09:35;95105.13;;;22.25;100.00
43878;BME280;29815;48.184;11.268;2023-07-28T08:12:06;95108.03;;;22.48;100.00
43878;BME280;29815;48.184;11.268;2023-07-28T08:14:36;95095.00;;;22.60;100.00
43878;BME280;29815;48.184;11.268;2023-07-28T08:17:06;95102.16;;;22.81;100.00
43878;BME280;29815;48.184;11.268;2023-07-28T08:19:36;95099.38;;;22.97;100.00
43878;BME280;29815;48.184;11.268;2023-07-28T08:22:07;95093.66;;;23.05;100.00
43878;BME280;29815;48.184;11.268;2023-07-28T08:24:38;95100.16;;;23.16;100.00
43878;BME280;29815;48.184;11.268;2023-07-28T08:27:08;95092.88;;;23.24;100.00
43878;BME280;29815;48.184;11.268;2023-07-28T08:29:37;95090.19;;;23.27;100.00
43878;BME280;29815;48.184;11.268;2023-07-28T08:32:09;95089.63;;;23.38;100.00
43878;BME280;29815;48.184;11.268;2023-07-28T08:34:39;95087.09;;;23.48;100.00
43878;BME280;29815;48.184;11.268;2023-07-28T08:37:08;95092.13;;;23.66;92.94
43878;BME280;29815;48.184;11.268;2023-07-28T08:39:40;95104.59;;;23.82;99.95
43878;BME280;29815;48.184;11.268;2023-07-28T08:42:09;95086.28;;;23.90;95.21
43878;BME280;29815;48.184;11.268;2023-07-28T08:44:39;95090.09;;;24.05;94.53
43878;BME280;29815;48.184;11.268;2023-07-28T08:47:09;95089.47;;;24.15;97.71
43878;BME280;29815;48.184;11.268;2023-07-28T08:49:39;95096.63;;;23.96;93.02
43878;BME280;29815;48.184;11.268;2023-07-28T08:52:08;95099.66;;;23.91;86.53
43878;BME280;29815;48.184;11.268;2023-07-28T08:54:39;95095.13;;;23.80;88.55
43878;BME280;29815;48.184;11.268;2023-07-28T08:57:10;95107.97;;;23.72;90.13
43878;BME280;29815;48.184;11.268;2023-07-28T08:59:39;95097.50;;;23.58;92.66
43878;BME280;29815;48.184;11.268;2023-07-28T09:02:16;95113.63;;;23.60;99.69
43878;BME280;29815;48.184;11.268;2023-07-28T09:04:48;95109.56;;;23.54;98.97
43878;BME280;29815;48.184;11.268;2023-07-28T09:07:18;95119.81;;;23.38;91.89
43878;BME280;29815;48.184;11.268;2023-07-28T09:09:49;95121.84;;;23.21;92.30
43878;BME280;29815;48.184;11.268;2023-07-28T09:12:24;95119.47;;;23.20;94.97
43878;BME280;29815;48.184;11.268;2023-07-28T09:14:56;95122.69;;;23.06;93.26
43878;BME280;29815;48.184;11.268;2023-07-28T09:17:26;95123.94;;;23.09;100.00
43878;BME280;29815;48.184;11.268;2023-07-28T09:19:56;95116.84;;;23.08;96.03
43878;BME280;29815;48.184;11.268;2023-07-28T09:22:26;95113.09;;;23.16;93.63
43878;BME280;29815;48.184;11.268;2023-07-28T09:25:12;95126.84;;;23.16;97.89
43878;BME280;29815;48.184;11.268;2023-07-28T09:27:50;95121.91;;;23.06;95.47
43878;BME280;29815;48.184;11.268;2023-07-28T09:30:20;95115.06;;;23.15;98.24
43878;BME280;29815;48.184;11.268;2023-07-28T09:32:52;95131.44;;;23.31;97.10
43878;BME280;29815;48.184;11.268;2023-07-28T09:35:23;95126.34;;;23.49;93.68
43878;BME280;29815;48.184;11.268;2023-07-28T09:37:52;95132.97;;;23.48;91.28
43878;BME280;29815;48.184;11.268;2023-07-28T09:40:24;95124.81;;;23.51;94.25
43878;BME280;29815;48.184;11.268;2023-07-28T09:42:55;95108.47;;;23.58;93.84
43878;BME280;29815;48.184;11.268;2023-07-28T09:45:24;95115.06;;;23.54;93.49
43878;BME280;29815;48.184;11.268;2023-07-28T09:48:07;95108.63;;;23.66;93.39
43878;BME280;29815;48.184;11.268;2023-07-28T09:50:40;95122.44;;;23.69;93.02
43878;BME280;29815;48.184;11.268;2023-07-28T09:53:12;95111.94;;;23.75;90.52
43878;BME280;29815;48.184;11.268;2023-07-28T09:55:44;95104.97;;;23.81;87.37
43878;BME280;29815;48.184;11.268;2023-07-28T09:58:16;95115.59;;;23.82;87.46
43878;BME280;29815;48.184;11.268;2023-07-28T10:00:47;95105.03;;;23.84;86.54
43878;BME280;29815;48.184;11.268;2023-07-28T10:03:17;95103.94;;;23.89;92.06
43878;BME280;29815;48.184;11.268;2023-07-28T10:05:47;95112.63;;;23.91;91.58
43878;BME280;29815;48.184;11.268;2023-07-28T10:08:18;95105.41;;;23.83;87.62
43878;BME280;29815;48.184;11.268;2023-07-28T10:10:49;95100.53;;;23.73;84.58
43878;BME280;29815;48.184;11.268;2023-07-28T10:13:21;95101.41;;;23.80;88.84
43878;BME280;29815;48.184;11.268;2023-07-28T10:15:51;95110.00;;;23.75;84.86
43878;BME280;29815;48.184;11.268;2023-07-28T10:18:21;95116.88;;;23.66;85.30
43878;BME280;29815;48.184;11.268;2023-07-28T10:20:51;95117.00;;;23.73;85.86
43878;BME280;29815;48.184;11.268;2023-07-28T10:23:22;95114.47;;;23.64;89.69
43878;BME280;29815;48.184;11.268;2023-07-28T10:25:58;95125.63;;;23.52;95.22
43878;BME280;29815;48.184;11.268;2023-07-28T10:28:31;95113.47;;;23.53;94.83
43878;BME280;29815;48.184;11.268;2023-07-28T10:31:04;95124.03;;;23.70;89.44
43878;BME280;29815;48.184;11.268;2023-07-28T10:33:37;95128.34;;;23.71;84.69
43878;BME280;29815;48.184;11.268;2023-07-28T10:36:14;95123.59;;;23.68;85.73
43878;BME280;29815;48.184;11.268;2023-07-28T10:38:45;95128.88;;;23.77;85.38
43878;BME280;29815;48.184;11.268;2023-07-28T10:41:17;95127.44;;;23.86;82.77
43878;BME280;29815;48.184;11.268;2023-07-28T10:43:46;95122.53;;;23.95;78.28
43878;BME280;29815;48.184;11.268;2023-07-28T10:46:19;95124.03;;;23.93;78.92
43878;BME280;29815;48.184;11.268;2023-07-28T10:48:50;95131.38;;;24.08;81.06
43878;BME280;29815;48.184;11.268;2023-07-28T10:51:26;95124.97;;;24.23;80.63
43878;BME280;29815;48.184;11.268;2023-07-28T10:54:01;95131.09;;;24.36;82.06
43878;BME280;29815;48.184;11.268;2023-07-28T10:56:32;95135.44;;;24.37;79.03
43878;BME280;29815;48.184;11.268;2023-07-28T10:59:04;95136.66;;;24.40;82.64
43878;BME280;29815;48.184;11.268;2023-07-28T11:01:36;95132.44;;;24.46;80.35
43878;BME280;29815;48.184;11.268;2023-07-28T11:04:09;95133.78;;;24.55;80.09
43878;BME280;29815;48.184;11.268;2023-07-28T11:06:42;95129.13;;;24.37;76.08
43878;BME280;29815;48.184;11.268;2023-07-28T11:09:14;95131.16;;;24.40;79.67
43878;BME280;29815;48.184;11.268;2023-07-28T11:11:46;95132.25;;;24.35;74.22
43878;BME280;29815;48.184;11.268;2023-07-28T11:14:17;95129.69;;;24.46;78.52
43878;BME280;29815;48.184;11.268;2023-07-28T11:16:47;95130.75;;;24.64;77.71
43878;BME280;29815;48.184;11.268;2023-07-28T11:19:17;95127.50;;;24.81;79.16
43878;BME280;29815;48.184;11.268;2023-07-28T11:21:55;95126.53;;;24.96;76.99
43878;BME280;29815;48.184;11.268;2023-07-28T11:24:26;95120.44;;;25.10;78.20
43878;BME280;29815;48.184;11.268;2023-07-28T11:26:57;95123.69;;;25.49;79.19
43878;BME280;29815;48.184;11.268;2023-07-28T11:29:28;95119.59;;;25.66;73.49
43878;BME280;29815;48.184;11.268;2023-07-28T11:31:58;95122.72;;;25.65;74.20
43878;BME280;29815;48.184;11.268;2023-07-28T11:34:28;95118.59;;;25.51;71.02
43878;BME280;29815;48.184;11.268;2023-07-28T11:36:58;95126.69;;;25.07;70.72
43878;BME280;29815;48.184;11.268;2023-07-28T11:39:28;95125.91;;;25.07;73.17
43878;BME280;29815;48.184;11.268;2023-07-28T11:42:00;95129.72;;;24.99;72.51
43878;BME280;29815;48.184;11.268;2023-07-28T11:44:30;95130.50;;;24.73;72.71
43878;BME280;29815;48.184;11.268;2023-07-28T11:47:00;95132.25;;;24.84;75.57
43878;BME280;29815;48.184;11.268;2023-07-28T11:49:46;95130.94;;;25.01;73.98
43878;BME280;29815;48.184;11.268;2023-07-28T11:52:16;95122.59;;;25.24;74.10
43878;BME280;29815;48.184;11.268;2023-07-28T11:54:49;95123.63;;;25.42;73.52
43878;BME280;29815;48.184;11.268;2023-07-28T11:57:22;95123.63;;;25.46;71.83
43878;BME280;29815;48.184;11.268;2023-07-28T11:59:54;95125.50;;;25.35;70.59
43878;BME280;29815;48.184;11.268;2023-07-28T12:02:28;95117.44;;;25.22;70.06
43878;BME280;29815;48.184;11.268;2023-07-28T12:04:59;95120.13;;;25.49;73.21
43878;BME280;29815;48.184;11.268;2023-07-28T12:07:33;95126.25;;;25.99;70.31
43878;BME280;29815;48.184;11.268;2023-07-28T12:10:04;95113.94;;;25.89;68.12
43878;BME280;29815;48.184;11.268;2023-07-28T12:12:44;95109.78;;;25.69;67.04
43878;BME280;29815;48.184;11.268;2023-07-28T12:15:23;95115.47;;;25.53;67.24
43878;BME280;29815;48.184;11.268;2023-07-28T12:18:12;95115.94;;;25.58;67.04
43878;BME280;29815;48.184;11.268;2023-07-28T12:20:47;95106.97;;;25.65;68.84
43878;BME280;29815;48.184;11.268;2023-07-28T12:23:20;95111.47;;;25.80;68.61
43878;BME280;29815;48.184;11.268;2023-07-28T12:25:53;95104.66;;;25.67;68.24
43878;BME280;29815;48.184;11.268;2023-07-28T12:28:25;95107.03;;;25.72;69.19
43878;BME280;29815;48.184;11.268;2023-07-28T12:30:57;95108.50;;;26.00;70.80
43878;BME280;29815;48.184;11.268;2023-07-28T12:33:27;95114.59;;;26.16;68.99
43878;BME280;29815;48.184;11.268;2023-07-28T12:35:59;95120.44;;;26.11;70.19
43878;BME280;29815;48.184;11.268;2023-07-28T12:38:49;95110.91;;;26.05;67.72
43878;BME280;29815;48.184;11.268;2023-07-28T12:41:22;95108.38;;;25.85;67.87
43878;BME280;29815;48.184;11.268;2023-07-28T12:44:08;95116.97;;;25.47;69.40
43878;BME280;29815;48.184;11.268;2023-07-28T12:46:43;95114.03;;;25.33;68.55
43878;BME280;29815;48.184;11.268;2023-07-28T12:49:12;95108.16;;;25.34;70.02
43878;BME280;29815;48.184;11.268;2023-07-28T12:51:45;95109.28;;;25.29;71.70
43878;BME280;29815;48.184;11.268;2023-07-28T12:54:18;95121.63;;;25.39;70.35
43878;BME280;29815;48.184;11.268;2023-07-28T12:56:48;95109.25;;;25.59;69.14
43878;BME280;29815;48.184;11.268;2023-07-28T12:59:39;95107.56;;;25.51;67.23
43878;BME280;29815;48.184;11.268;2023-07-28T13:02:11;95106.41;;;25.52;68.32
43878;BME280;29815;48.184;11.268;2023-07-28T13:04:41;95103.84;;;25.67;68.14